Time;durP1;ratioP1;P1;durP2;ratioP2;P2;SDS_P1;SDS_P2;PMS_P1;PMS_P2;Temp;Humidity;BMP_temperature;BMP_pressure;BME280_temperature;BME280_humidity;BME280_pressure;Samples;Min_cycle;Max_cycle;Signal;HPM_P1;HPM_P2
2022/10/12 00:02:00;;;;;;;8.70;5.10;;;;;;;6.38;92.33;97597.70;105038;1301;22488;-85
2022/10/12 00:04:34;;;;;;;9.70;4.70;;;;;;;6.29;92.45;97597.59;104998;1305;24090;-84
2022/10/12 00:07:05;;;;;;;6.10;4.30;;;;;;;6.24;92.34;97600.52;105108;1303;22673;-85
2022/10/12 00:09:37;;;;;;;8.10;4.40;;;;;;;6.17;92.37;97602.13;105156;1304;22480;-85
2022/10/12 00:12:08;;;;;;;7.40;4.40;;;;;;;6.12;92.22;97602.16;105115;1297;25265;-85
2022/10/12 00:14:40;;;;;;;8.20;4.40;;;;;;;6.04;92.55;97598.10;105049;1303;25635;-85
2022/10/12 00:17:11;;;;;;;9.20;4.80;;;;;;;5.99;92.98;97598.89;105112;1301;22495;-85
2022/10/12 00:19:43;;;;;;;8.70;4.60;;;;;;;6.02;93.12;97599.74;105108;1295;24354;-85
2022/10/12 00:22:16;;;;;;;9.30;4.10;;;;;;;6.08;93.29;97605.02;105131;1294;24063;-85
2022/10/12 00:24:47;;;;;;;9.50;4.50;;;;;;;6.06;92.96;97605.04;105089;1306;22500;-85
2022/10/12 00:27:18;;;;;;;11.70;5.00;;;;;;;6.04;92.85;97605.42;105136;1299;22463;-85
2022/10/12 00:29:49;;;;;;;7.50;4.00;;;;;;;5.95;92.51;97603.16;105161;1288;22475;-85
2022/10/12 00:32:20;;;;;;;8.50;4.50;;;;;;;5.84;92.44;97606.11;105120;1304;22487;-85
2022/10/12 00:34:52;;;;;;;9.20;4.90;;;;;;;5.79;92.64;97602.63;105082;1304;22484;-85
2022/10/12 00:37:25;;;;;;;9.40;4.40;;;;;;;5.82;92.97;97605.63;105071;1306;22691;-85
2022/10/12 00:39:56;;;;;;;7.30;4.00;;;;;;;5.84;92.91;97604.30;105073;1306;24439;-85
2022/10/12 00:42:27;;;;;;;8.70;5.90;;;;;;;5.85;92.59;97605.98;105067;1304;22534;-85
2022/10/12 00:44:58;;;;;;;10.20;5.90;;;;;;;5.81;92.39;97604.91;105031;1290;22511;-84
2022/10/12 00:47:34;;;;;;;10.10;6.00;;;;;;;5.68;91.95;97602.52;105082;1306;23508;-85
2022/10/12 00:50:10;;;;;;;12.70;8.00;;;;;;;5.49;91.90;97599.36;105064;1293;22505;-85
2022/10/12 00:52:46;;;;;;;14.90;7.50;;;;;;;5.35;92.24;97596.38;105055;1297;24244;-84
2022/10/12 00:55:21;;;;;;;9.90;5.40;;;;;;;5.24;92.68;97597.04;105031;1294;22606;-84
2022/10/12 00:57:55;;;;;;;8.90;4.70;;;;;;;5.24;93.33;97595.86;105161;1289;22624;-84
2022/10/12 01:00:26;;;;;;;9.20;5.20;;;;;;;5.30;93.67;97595.61;105108;1304;25844;-84
2022/10/12 01:02:58;;;;;;;15.80;6.80;;;;;;;5.37;93.94;97601.09;105122;1298;22692;-84
2022/10/12 01:05:29;;;;;;;9.10;5.00;;;;;;;5.42;93.74;97599.94;105052;1298;26480;-85
2022/10/12 01:08:01;;;;;;;14.40;8.60;;;;;;;5.45;93.55;97599.61;105057;1290;22487;-84
2022/10/12 01:10:34;;;;;;;14.20;8.60;;;;;;;5.38;92.66;97594.71;105059;1283;22538;-85
2022/10/12 01:13:06;;;;;;;15.40;8.00;;;;;;;5.15;92.34;97595.03;105052;1282;22491;-84
2022/10/12 01:15:42;;;;;;;12.90;7.00;;;;;;;4.92;92.66;97595.27;105043;1306;25242;-84
2022/10/12 01:18:19;;;;;;;11.80;7.00;;;;;;;4.74;92.79;97601.30;105060;1298;22477;-84
2022/10/12 01:21:06;;;;;;;11.50;7.90;;;;;;;4.65;93.15;97596.61;105047;1288;22581;-84
2022/10/12 01:24:14;;;;;;;14.00;8.80;;;;;;;4.68;93.92;97598.12;105051;1306;24251;-85
2022/10/12 01:27:13;;;;;;;13.10;8.10;;;;;;;4.66;93.98;97602.42;105008;1299;22486;-85
2022/10/12 01:30:09;;;;;;;9.70;6.10;;;;;;;4.63;94.13;97603.45;105000;1306;22492;-85
2022/10/12 01:32:52;;;;;;;9.10;5.40;;;;;;;4.64;94.17;97603.92;105070;1306;23124;-85
2022/10/12 01:35:29;;;;;;;9.90;5.90;;;;;;;4.66;94.54;97600.94;105014;1306;23016;-84
2022/10/12 01:38:11;;;;;;;10.50;6.20;;;;;;;4.68;94.67;97601.96;105007;1306;22492;-84
2022/10/12 01:40:48;;;;;;;12.40;6.00;;;;;;;4.58;94.25;97601.68;105062;1299;22641;-85
2022/10/12 01:43:22;;;;;;;8.60;5.30;;;;;;;4.54;94.34;97596.88;105011;1305;25290;-85
2022/10/12 01:45:53;;;;;;;9.10;5.40;;;;;;;4.52;94.44;97597.79;105038;1291;22530;-85
2022/10/12 01:48:25;;;;;;;5.90;4.70;;;;;;;4.58;94.57;97598.81;105087;1305;22636;-85
2022/10/12 01:51:02;;;;;;;7.60;5.10;;;;;;;4.65;94.52;97597.50;105080;1296;22640;-85
2022/10/12 01:53:43;;;;;;;15.60;5.40;;;;;;;4.70;94.41;97597.86;105044;1305;23298;-85
2022/10/12 01:56:23;;;;;;;7.80;5.10;;;;;;;4.74;94.31;97601.98;105038;1279;25271;-85
2022/10/12 01:59:04;;;;;;;12.80;6.90;;;;;;;4.73;94.22;97600.89;105078;1305;22519;-85
2022/10/12 02:01:48;;;;;;;10.90;5.30;;;;;;;4.67;94.40;97601.73;105048;1290;22455;-84
2022/10/12 02:04:26;;;;;;;9.20;5.40;;;;;;;4.67;94.98;97604.29;105086;1301;22541;-84
2022/10/12 02:07:05;;;;;;;9.40;5.10;;;;;;;4.64;95.07;97598.67;105025;1306;32857;-85
2022/10/12 02:09:39;;;;;;;9.80;5.50;;;;;;;4.61;95.18;97597.64;105036;1306;24426;-85
2022/10/12 02:12:14;;;;;;;8.90;5.00;;;;;;;4.60;95.20;97599.32;105031;1302;22505;-84
2022/10/12 02:14:50;;;;;;;8.10;5.50;;;;;;;4.59;95.41;97601.66;105004;1298;22569;-84
2022/10/12 02:17:26;;;;;;;6.70;5.00;;;;;;;4.58;95.50;97604.42;105156;1304;26481;-85
2022/10/12 02:19:58;;;;;;;14.80;8.80;;;;;;;4.56;95.35;97601.17;105086;1304;22526;-85
2022/10/12 02:22:34;;;;;;;19.20;11.20;;;;;;;4.55;95.60;97604.22;105138;1300;25249;-84
2022/10/12 02:25:09;;;;;;;16.80;10.90;;;;;;;4.51;95.62;97601.10;105120;1304;24432;-84
2022/10/12 02:27:46;;;;;;;17.90;10.90;;;;;;;4.46;95.86;97602.21;105067;1292;25361;-84
2022/10/12 02:30:18;;;;;;;16.90;10.70;;;;;;;4.44;95.97;97601.10;105113;1291;22458;-84
2022/10/12 02:32:54;;;;;;;15.50;9.40;;;;;;;4.42;96.21;97604.35;105104;1288;25454;-84
2022/10/12 02:35:32;;;;;;;15.90;10.80;;;;;;;4.43;96.39;97608.63;105096;1304;24120;-84
2022/10/12 02:38:09;;;;;;;14.70;10.00;;;;;;;4.45;96.62;97608.21;105133;1296;22497;-85
2022/10/12 02:40:48;;;;;;;14.40;8.80;;;;;;;4.50;96.73;97605.46;105102;1284;22599;-84
2022/10/12 02:43:24;;;;;;;14.10;8.40;;;;;;;4.56;96.68;97607.56;105167;1301;25473;-84
2022/10/12 02:45:58;;;;;;;10.80;7.40;;;;;;;4.58;96.62;97612.55;105074;1306;22474;-84
2022/10/12 02:48:31;;;;;;;12.50;6.80;;;;;;;4.59;96.62;97615.73;105134;1305;22534;-84
2022/10/12 02:51:04;;;;;;;12.40;6.30;;;;;;;4.61;96.27;97611.71;105102;1304;22494;-84
2022/10/12 02:53:38;;;;;;;8.50;5.50;;;;;;;4.62;96.07;97610.36;105107;1297;22508;-84
2022/10/12 02:56:13;;;;;;;7.50;5.70;;;;;;;4.58;96.05;97612.67;104933;1306;50915;-84
2022/10/12 02:58:46;;;;;;;10.60;5.50;;;;;;;4.52;95.92;97615.06;105024;1297;22626;-84
2022/10/12 03:01:18;;;;;;;7.80;4.90;;;;;;;4.51;95.84;97613.83;105078;1297;22473;-83
2022/10/12 03:03:50;;;;;;;10.30;5.50;;;;;;;4.52;95.70;97608.40;105054;1298;22509;-84
2022/10/12 03:06:21;;;;;;;8.40;5.20;;;;;;;4.54;95.62;97610.50;105025;1304;22477;-84
2022/10/12 03:08:55;;;;;;;11.10;5.10;;;;;;;4.40;95.17;97613.74;105016;1306;24253;-84
2022/10/12 03:11:27;;;;;;;8.80;5.00;;;;;;;4.23;95.14;97615.02;105068;1289;22465;-84
2022/10/12 03:13:58;;;;;;;10.90;7.30;;;;;;;4.06;95.03;97614.99;105049;1302;22478;-84
2022/10/12 03:16:29;;;;;;;10.90;7.70;;;;;;;3.99;95.70;97615.33;105007;1281;25123;-84
2022/10/12 03:19:00;;;;;;;12.10;8.20;;;;;;;3.97;96.05;97610.42;105038;1284;22507;-83
2022/10/12 03:21:31;;;;;;;11.70;8.50;;;;;;;3.99;96.55;97616.05;105019;1306;22612;-84
2022/10/12 03:24:02;;;;;;;12.10;9.30;;;;;;;4.00;96.74;97611.00;105036;1289;22466;-84
2022/10/12 03:26:34;;;;;;;12.40;8.30;;;;;;;4.05;97.07;97607.08;105086;1304;22528;-84
2022/10/12 03:29:05;;;;;;;11.90;7.80;;;;;;;4.11;97.18;97610.17;105120;1304;25362;-84
2022/10/12 03:31:37;;;;;;;13.30;8.50;;;;;;;4.17;97.34;97609.98;105139;1297;22585;-84
2022/10/12 03:34:08;;;;;;;12.40;8.00;;;;;;;4.24;97.42;97612.94;105110;1288;22498;-84
2022/10/12 03:36:39;;;;;;;10.90;7.90;;;;;;;4.29;97.39;97605.71;104997;1292;23739;-84
2022/10/12 03:39:11;;;;;;;11.50;7.20;;;;;;;4.32;97.11;97606.05;105022;1306;22565;-84
2022/10/12 03:41:42;;;;;;;10.20;7.50;;;;;;;4.28;96.83;97607.63;105035;1282;22476;-84
2022/10/12 03:44:14;;;;;;;10.40;7.00;;;;;;;4.27;96.90;97610.38;105053;1284;22469;-84
2022/10/12 03:46:45;;;;;;;12.70;8.00;;;;;;;4.29;96.74;97606.96;104981;1305;24287;-84
2022/10/12 03:49:16;;;;;;;9.80;7.10;;;;;;;4.31;96.68;97608.08;105032;1292;22528;-84
2022/10/12 03:51:48;;;;;;;8.60;5.50;;;;;;;4.26;96.41;97606.75;105048;1304;25504;-84
2022/10/12 03:54:20;;;;;;;7.50;4.90;;;;;;;4.12;96.14;97609.34;105075;1292;25334;-84
2022/10/12 03:56:51;;;;;;;9.00;6.10;;;;;;;4.00;96.14;97612.98;104960;1291;26639;-84
2022/10/12 03:59:23;;;;;;;7.60;4.90;;;;;;;3.96;96.38;97613.81;105063;1304;22505;-84
2022/10/12 04:01:55;;;;;;;8.00;4.70;;;;;;;4.01;96.53;97614.30;105046;1284;22886;-83
2022/10/12 04:04:26;;;;;;;8.20;4.60;;;;;;;4.01;96.24;97612.45;105049;1282;22492;-83
2022/10/12 04:06:58;;;;;;;5.80;4.50;;;;;;;3.95;96.15;97612.09;104936;1306;33190;-84
2022/10/12 04:09:29;;;;;;;8.00;4.40;;;;;;;3.92;96.12;97612.03;105048;1304;22657;-83
2022/10/12 04:12:00;;;;;;;10.20;6.80;;;;;;;3.86;96.01;97612.52;105012;1306;22489;-84
2022/10/12 04:14:32;;;;;;;8.00;5.40;;;;;;;3.86;96.42;97610.48;104995;1306;22467;-83
2022/10/12 04:17:13;;;;;;;6.10;4.60;;;;;;;3.94;96.81;97608.45;105060;1303;22469;-84
2022/10/12 04:19:48;;;;;;;10.40;6.20;;;;;;;3.99;96.51;97611.85;105040;1306;22461;-84
2022/10/12 04:22:19;;;;;;;9.30;5.80;;;;;;;3.96;96.33;97610.70;105048;1288;24548;-84
2022/10/12 04:24:50;;;;;;;10.00;6.20;;;;;;;3.87;96.40;97610.71;105002;1306;22486;-83
2022/10/12 04:27:21;;;;;;;8.90;6.10;;;;;;;3.84;96.84;97614.23;105057;1304;22479;-83
2022/10/12 04:29:53;;;;;;;11.70;7.20;;;;;;;3.85;97.29;97618.48;105043;1290;22509;-83
2022/10/12 04:32:26;;;;;;;9.30;6.20;;;;;;;3.90;97.44;97618.63;105037;1284;22464;-83
2022/10/12 04:34:57;;;;;;;10.30;6.60;;;;;;;3.93;97.64;97615.14;104993;1292;22493;-83
2022/10/12 04:37:30;;;;;;;14.70;9.70;;;;;;;3.94;97.70;97618.49;105040;1297;22496;-84
2022/10/12 04:40:01;;;;;;;14.90;10.90;;;;;;;3.94;97.67;97619.05;105070;1288;25282;-83
2022/10/12 04:42:32;;;;;;;19.70;14.60;;;;;;;3.91;97.44;97619.13;105014;1299;22605;-83
2022/10/12 04:45:06;;;;;;;18.60;14.00;;;;;;;3.81;97.08;97619.50;104988;1306;22486;-83
2022/10/12 04:47:38;;;;;;;17.00;11.30;;;;;;;3.82;97.47;97623.38;105053;1306;22493;-84
2022/10/12 04:50:10;;;;;;;12.80;10.50;;;;;;;3.89;97.54;97627.77;105035;1299;23220;-83
2022/10/12 04:52:41;;;;;;;11.90;9.50;;;;;;;3.95;97.73;97623.55;105095;1284;22533;-84
2022/10/12 04:55:12;;;;;;;12.70;8.30;;;;;;;4.03;97.73;97627.09;104972;1305;22485;-83
2022/10/12 04:57:44;;;;;;;12.10;8.40;;;;;;;4.07;97.51;97628.17;105030;1290;22466;-83
2022/10/12 05:00:16;;;;;;;10.80;7.70;;;;;;;4.09;97.08;97634.36;105020;1288;22550;-83
2022/10/12 05:02:48;;;;;;;12.30;8.40;;;;;;;4.05;96.43;97633.61;105139;1300;22509;-83
2022/10/12 05:05:19;;;;;;;8.20;6.70;;;;;;;3.95;96.37;97629.64;105040;1306;23053;-83
2022/10/12 05:07:50;;;;;;;10.30;7.50;;;;;;;3.93;96.60;97633.06;105096;1300;22564;-83
2022/10/12 05:10:22;;;;;;;11.80;8.00;;;;;;;3.93;96.89;97630.36;105117;1304;22456;-83
2022/10/12 05:12:55;;;;;;;9.20;7.70;;;;;;;3.97;97.04;97630.15;105125;1306;22712;-83
2022/10/12 05:15:26;;;;;;;12.80;8.30;;;;;;;4.09;97.20;97630.23;105067;1296;24282;-83
2022/10/12 05:18:00;;;;;;;12.20;8.80;;;;;;;4.34;97.41;97625.46;105122;1282;25310;-83
2022/10/12 05:20:31;;;;;;;10.80;8.00;;;;;;;4.66;97.42;97628.69;105074;1304;22925;-83
2022/10/12 05:23:03;;;;;;;10.90;7.80;;;;;;;4.99;97.38;97630.97;105143;1288;22481;-83
2022/10/12 05:25:35;;;;;;;12.00;7.50;;;;;;;5.36;96.93;97630.62;105040;1298;32300;-83
2022/10/12 05:28:07;;;;;;;8.80;5.40;;;;;;;5.59;96.33;97627.10;105022;1303;22698;-83
2022/10/12 05:30:38;;;;;;;6.40;3.80;;;;;;;5.66;95.68;97630.11;105084;1306;22566;-83
2022/10/12 05:33:10;;;;;;;9.50;4.40;;;;;;;5.77;95.04;97631.87;105041;1306;22502;-83
2022/10/12 05:35:44;;;;;;;8.70;5.00;;;;;;;5.87;94.45;97634.38;105034;1284;22470;-83
2022/10/12 05:38:15;;;;;;;7.30;5.20;;;;;;;5.92;94.00;97632.08;105076;1306;22517;-83
2022/10/12 05:40:46;;;;;;;6.30;4.60;;;;;;;6.02;93.54;97633.80;105069;1304;22476;-83
2022/10/12 05:43:17;;;;;;;6.70;5.10;;;;;;;6.34;93.55;97632.78;105028;1306;22515;-84
2022/10/12 05:45:48;;;;;;;4.70;4.00;;;;;;;6.78;93.53;97637.10;104993;1288;24396;-83
2022/10/12 05:48:20;;;;;;;6.30;4.20;;;;;;;7.28;92.66;97632.57;105078;1291;22473;-83
2022/10/12 05:50:54;;;;;;;7.00;4.10;;;;;;;7.50;91.35;97633.13;105081;1304;25407;-83
2022/10/12 05:53:25;;;;;;;6.50;4.20;;;;;;;7.66;91.28;97631.62;105107;1304;22460;-83
2022/10/12 05:55:58;;;;;;;10.40;5.60;;;;;;;8.09;91.01;97629.95;105032;1284;25257;-83
2022/10/12 05:58:30;;;;;;;6.60;5.60;;;;;;;8.69;90.72;97628.39;105102;1300;22470;-83
2022/10/12 06:01:09;;;;;;;7.60;4.90;;;;;;;9.07;89.28;97631.50;105101;1282;22500;-83
2022/10/12 06:03:42;;;;;;;6.30;4.80;;;;;;;9.35;88.30;97634.00;105065;1306;22477;-83
2022/10/12 06:06:13;;;;;;;6.60;4.50;;;;;;;9.85;88.01;97634.33;105043;1289;22525;-83
2022/10/12 06:08:45;;;;;;;7.00;5.10;;;;;;;10.60;87.21;97632.71;105172;1297;22498;-83
2022/10/12 06:11:16;;;;;;;6.40;4.60;;;;;;;11.40;86.00;97633.97;105159;1304;22498;-83
2022/10/12 06:13:47;;;;;;;6.20;4.70;;;;;;;12.22;85.39;97634.35;105116;1289;22476;-83
2022/10/12 06:16:18;;;;;;;6.80;4.70;;;;;;;12.83;83.85;97636.67;105049;1298;25648;-83
2022/10/12 06:18:49;;;;;;;6.90;4.70;;;;;;;13.50;82.66;97641.44;105094;1285;25260;-84
2022/10/12 06:21:21;;;;;;;5.40;4.50;;;;;;;14.14;81.43;97641.11;105069;1285;25312;-83
2022/10/12 06:23:55;;;;;;;5.60;4.60;;;;;;;14.59;79.89;97641.06;105044;1305;22489;-83
2022/10/12 06:26:28;;;;;;;5.50;4.90;;;;;;;15.31;78.42;97638.08;105022;1300;22889;-84
2022/10/12 06:29:00;;;;;;;6.40;4.80;;;;;;;16.03;77.07;97636.23;105094;1304;22513;-84
2022/10/12 06:31:32;;;;;;;5.30;4.60;;;;;;;16.49;75.32;97637.23;105021;1290;22463;-84
2022/10/12 06:34:07;;;;;;;5.50;4.70;;;;;;;17.01;73.97;97634.09;105067;1306;22544;-84
2022/10/12 06:36:38;;;;;;;5.40;4.50;;;;;;;17.55;72.60;97636.27;104976;1305;24239;-83
2022/10/12 06:39:10;;;;;;;6.50;4.60;;;;;;;17.72;71.06;97642.98;105101;1306;22525;-83
2022/10/12 06:41:42;;;;;;;5.30;4.40;;;;;;;18.13;70.16;97645.41;105084;1282;22519;-83
2022/10/12 06:44:13;;;;;;;7.00;5.00;;;;;;;18.44;68.98;97644.27;105081;1296;22479;-83
2022/10/12 06:46:45;;;;;;;6.50;5.20;;;;;;;18.41;67.23;97647.70;105023;1291;26441;-83
2022/10/12 06:49:16;;;;;;;7.20;5.30;;;;;;;18.52;66.43;97647.52;105079;1293;22464;-83
2022/10/12 06:51:47;;;;;;;6.70;4.90;;;;;;;18.53;65.12;97646.61;105100;1306;22465;-83
2022/10/12 06:54:18;;;;;;;6.90;4.90;;;;;;;18.63;64.53;97641.21;105080;1296;22585;-82
2022/10/12 06:56:49;;;;;;;6.60;4.70;;;;;;;18.69;63.70;97639.61;105055;1301;30363;-83
2022/10/12 06:59:21;;;;;;;7.00;5.20;;;;;;;18.84;62.42;97642.00;105045;1305;22468;-82
2022/10/12 07:01:55;;;;;;;5.90;4.80;;;;;;;18.36;60.55;97644.31;105087;1284;22464;-82
2022/10/12 07:04:26;;;;;;;6.70;5.40;;;;;;;17.86;60.84;97647.97;105063;1305;25212;-82
2022/10/12 07:06:57;;;;;;;7.40;5.10;;;;;;;17.86;61.24;97646.31;105041;1296;33788;-83
2022/10/12 07:09:29;;;;;;;6.40;5.20;;;;;;;18.06;61.00;97646.80;105060;1297;22464;-82
2022/10/12 07:12:00;;;;;;;5.70;4.80;;;;;;;18.11;60.56;97648.27;105066;1288;22490;-82
2022/10/12 07:14:32;;;;;;;8.80;4.80;;;;;;;18.51;60.59;97643.72;105011;1302;25622;-81
2022/10/12 07:17:03;;;;;;;6.80;5.00;;;;;;;18.87;59.49;97647.33;105066;1301;22473;-83
2022/10/12 07:19:35;;;;;;;6.70;4.60;;;;;;;18.96;58.96;97639.81;105041;1291;22773;-82
2022/10/12 07:22:06;;;;;;;6.90;5.00;;;;;;;18.95;57.77;97638.17;105058;1290;22507;-83
2022/10/12 07:24:37;;;;;;;6.30;4.90;;;;;;;18.38;56.68;97638.63;105013;1298;24079;-82
2022/10/12 07:27:12;;;;;;;5.90;4.60;;;;;;;18.23;57.34;97635.00;105063;1291;22473;-82
2022/10/12 07:29:46;;;;;;;7.40;4.90;;;;;;;18.83;57.87;97636.35;105071;1279;22539;-83
2022/10/12 07:32:17;;;;;;;7.50;5.10;;;;;;;19.38;57.20;97635.20;105029;1304;22587;-83
2022/10/12 07:34:49;;;;;;;6.00;4.40;;;;;;;20.28;56.62;97635.06;104987;1306;22512;-83
2022/10/12 07:37:20;;;;;;;7.30;4.30;;;;;;;21.17;55.21;97633.98;105075;1284;22488;-83
2022/10/12 07:39:56;;;;;;;6.40;4.00;;;;;;;21.70;54.46;97632.68;105048;1305;22463;-83
2022/10/12 07:42:27;;;;;;;6.40;4.80;;;;;;;21.42;50.96;97634.84;105018;1282;22525;-83
2022/10/12 07:44:58;;;;;;;6.50;4.00;;;;;;;20.81;50.72;97631.38;105059;1297;22506;-83
2022/10/12 07:47:29;;;;;;;8.20;4.90;;;;;;;20.51;48.31;97626.27;105082;1291;22510;-84
2022/10/12 07:50:00;;;;;;;7.80;5.10;;;;;;;20.39;47.76;97629.58;105061;1285;22502;-84
2022/10/12 07:52:32;;;;;;;8.20;5.30;;;;;;;20.10;47.52;97628.44;105058;1282;22471;-83
2022/10/12 07:55:04;;;;;;;7.10;4.30;;;;;;;20.21;48.85;97629.90;105006;1283;26910;-83
2022/10/12 07:57:35;;;;;;;8.00;4.50;;;;;;;20.86;49.85;97628.27;105076;1282;22982;-83
2022/10/12 08:00:08;;;;;;;7.70;3.90;;;;;;;21.34;49.63;97622.16;105004;1277;22455;-83
2022/10/12 08:02:44;;;;;;;8.20;3.60;;;;;;;22.06;49.86;97625.94;105105;1288;24337;-83
2022/10/12 08:05:16;;;;;;;8.40;3.90;;;;;;;22.35;47.98;97625.19;104980;1282;22499;-83
2022/10/12 08:07:47;;;;;;;5.90;3.80;;;;;;;22.66;47.71;97623.29;105128;1305;22472;-84
2022/10/12 08:10:19;;;;;;;6.50;3.50;;;;;;;23.11;46.27;97618.31;105053;1295;22511;-84
2022/10/12 08:12:50;;;;;;;7.20;3.70;;;;;;;22.92;42.69;97619.23;105045;1284;24651;-84
2022/10/12 08:15:23;;;;;;;7.90;4.10;;;;;;;22.22;43.60;97617.90;105055;1284;22470;-84
2022/10/12 08:17:54;;;;;;;5.90;3.20;;;;;;;22.30;42.74;97620.61;105065;1298;22457;-84
2022/10/12 08:20:25;;;;;;;7.60;3.20;;;;;;;21.84;44.08;97618.54;105023;1284;23253;-85
2022/10/12 08:22:56;;;;;;;7.70;3.80;;;;;;;21.81;42.64;97621.79;105039;1293;22488;-83
2022/10/12 08:25:27;;;;;;;7.90;3.40;;;;;;;21.49;44.62;97620.52;105037;1298;23666;-85
2022/10/12 08:27:59;;;;;;;6.60;3.70;;;;;;;21.96;45.64;97625.52;105047;1306;22941;-85
2022/10/12 08:30:30;;;;;;;5.20;3.10;;;;;;;22.30;44.92;97623.70;105084;1305;22763;-85
2022/10/12 08:33:01;;;;;;;5.10;2.90;;;;;;;21.86;43.69;97616.67;105074;1288;22486;-85
2022/10/12 08:35:32;;;;;;;7.20;3.30;;;;;;;21.87;45.44;97610.55;104992;1281;25668;-85
2022/10/12 08:38:04;;;;;;;7.10;3.40;;;;;;;21.78;44.96;97610.95;105066;1304;22515;-85
2022/10/12 08:40:42;;;;;;;6.10;2.90;;;;;;;21.17;44.38;97609.16;105064;1285;22458;-85
2022/10/12 08:43:25;;;;;;;4.50;2.30;;;;;;;20.30;43.71;97610.02;105065;1281;22463;-85
2022/10/12 08:45:59;;;;;;;6.30;2.40;;;;;;;18.91;42.44;97613.33;105056;1294;22472;-85
2022/10/12 08:48:34;;;;;;;9.30;3.00;;;;;;;17.38;43.00;97618.77;105152;1305;23751;-85
2022/10/12 08:51:09;;;;;;;5.90;2.40;;;;;;;16.09;45.12;97616.26;105112;1306;22512;-85
2022/10/12 08:53:49;;;;;;;7.00;3.20;;;;;;;15.14;47.15;97618.58;105159;1275;25502;-85
2022/10/12 08:56:23;;;;;;;4.30;2.60;;;;;;;14.45;49.07;97625.25;105145;1304;24307;-85
2022/10/12 08:58:56;;;;;;;8.40;3.30;;;;;;;14.24;50.64;97621.59;105142;1280;22470;-85
2022/10/12 09:01:35;;;;;;;5.40;3.10;;;;;;;14.06;51.44;97618.44;105194;1298;22478;-85
2022/10/12 09:04:23;;;;;;;7.20;3.20;;;;;;;13.93;52.67;97620.05;105141;1297;22460;-85
2022/10/12 09:07:02;;;;;;;7.30;3.40;;;;;;;14.10;53.83;97623.21;105086;1289;22511;-85
2022/10/12 09:09:48;;;;;;;6.70;3.40;;;;;;;13.97;53.20;97619.88;105182;1296;22777;-86
2022/10/12 09:12:31;;;;;;;7.60;3.80;;;;;;;13.41;53.09;97622.67;105153;1291;22478;-85
2022/10/12 09:15:06;;;;;;;8.20;3.50;;;;;;;13.18;54.26;97620.36;105109;1288;22465;-86
2022/10/12 09:17:43;;;;;;;8.10;2.80;;;;;;;13.22;54.99;97620.58;105136;1305;24323;-86
2022/10/12 09:20:20;;;;;;;6.10;2.90;;;;;;;13.21;54.51;97622.98;105152;1291;22687;-86
2022/10/12 09:22:55;;;;;;;7.90;3.40;;;;;;;13.14;54.61;97623.66;105132;1303;22501;-86
2022/10/12 09:25:28;;;;;;;5.40;2.90;;;;;;;13.16;54.95;97624.15;105135;1291;22480;-86
2022/10/12 09:28:13;;;;;;;9.30;4.00;;;;;;;13.20;55.03;97622.51;105160;1297;22530;-86
2022/10/12 09:30:58;;;;;;;8.20;3.80;;;;;;;13.30;55.65;97620.78;105166;1304;25385;-86
2022/10/12 09:33:39;;;;;;;7.00;3.50;;;;;;;13.56;56.14;97621.81;105167;1304;23801;-86
2022/10/12 09:36:10;;;;;;;;;;;;;;;13.63;55.49;97624.41;105103;1277;22489;-86
2022/10/12 09:38:43;;;;;;;6.30;3.40;;;;;;;13.66;56.27;97619.70;105123;1301;22480;-87
2022/10/12 09:41:20;;;;;;;7.80;3.20;;;;;;;13.86;54.38;97619.77;105128;1295;22478;-87
2022/10/12 09:43:55;;;;;;;6.60;3.10;;;;;;;13.84;54.86;97621.81;105190;1299;24282;-86
2022/10/12 09:46:36;;;;;;;8.20;3.20;;;;;;;13.92;53.86;97617.49;105098;1306;22525;-87
2022/10/12 09:49:05;;;;;;;;;;;;;;;14.07;54.54;97615.71;105157;1291;22517;-87
2022/10/12 09:51:37;;;;;;;5.50;2.60;;;;;;;14.31;54.11;97618.03;105167;1306;22487;-86
2022/10/12 09:54:16;;;;;;;7.80;3.00;;;;;;;14.49;54.19;97610.23;105188;1282;25385;-86
2022/10/12 09:56:51;;;;;;;7.10;2.80;;;;;;;14.55;51.86;97613.17;105096;1304;23282;-86
2022/10/12 09:59:29;;;;;;;6.30;3.30;;;;;;;14.12;51.94;97613.98;105168;1297;24470;-86
2022/10/12 10:02:13;;;;;;;7.90;3.20;;;;;;;14.03;53.42;97612.31;105188;1292;22507;-87
2022/10/12 10:04:47;;;;;;;7.40;3.10;;;;;;;14.20;53.64;97615.69;105116;1303;23311;-86
2022/10/12 10:07:29;;;;;;;6.20;2.90;;;;;;;14.19;53.53;97613.45;105158;1304;22540;-87
2022/10/12 10:10:16;;;;;;;3.60;2.50;;;;;;;14.31;53.07;97614.29;105193;1291;22487;-87
2022/10/12 10:12:50;;;;;;;7.40;2.90;;;;;;;14.08;52.26;97614.96;105233;1297;22600;-87
2022/10/12 10:15:26;;;;;;;7.00;2.70;;;;;;;13.91;52.12;97617.52;105134;1291;22458;-86
2022/10/12 10:18:00;;;;;;;7.10;2.90;;;;;;;13.88;52.49;97617.84;105194;1297;22786;-86
2022/10/12 10:20:39;;;;;;;7.10;2.60;;;;;;;14.09;53.04;97613.73;105137;1291;22471;-87
2022/10/12 10:23:25;;;;;;;6.80;2.40;;;;;;;14.06;52.62;97607.45;105171;1281;22472;-87
2022/10/12 10:26:04;;;;;;;9.50;2.90;;;;;;;14.40;53.77;97610.88;105091;1291;22478;-87
2022/10/12 10:28:37;;;;;;;5.50;2.70;;;;;;;14.79;53.52;97606.80;105144;1278;22512;-87
2022/10/12 10:31:20;;;;;;;5.80;2.70;;;;;;;15.07;53.85;97602.05;105153;1304;22466;-87
2022/10/12 10:34:14;;;;;;;6.30;2.60;;;;;;;15.34;53.62;97600.96;105129;1304;25283;-88
2022/10/12 10:36:49;;;;;;;3.90;2.20;;;;;;;15.36;51.76;97596.34;105121;1304;22462;-88
2022/10/12 10:39:26;;;;;;;5.90;2.30;;;;;;;15.18;51.20;97598.73;105118;1304;22464;-87
2022/10/12 10:42:08;;;;;;;4.30;2.00;;;;;;;15.18;51.79;97598.20;105112;1304;22516;-88
2022/10/12 10:44:40;;;;;;;5.40;2.70;;;;;;;15.32;51.65;97599.16;105103;1283;22484;-87
2022/10/12 10:47:13;;;;;;;8.00;2.50;;;;;;;15.40;51.31;97595.13;105126;1288;26190;-87
2022/10/12 10:49:48;;;;;;;5.70;2.50;;;;;;;15.45;51.81;97594.53;105141;1304;22477;-87
2022/10/12 10:52:25;;;;;;;4.70;2.30;;;;;;;15.56;51.98;97589.38;105122;1291;24337;-87
2022/10/12 10:55:18;;;;;;;7.80;3.00;;;;;;;15.62;52.14;97591.48;105104;1304;23780;-87
2022/10/12 10:57:58;;;;;;;4.70;2.20;;;;;;;15.66;51.68;97589.56;105184;1298;22488;-87
2022/10/12 11:00:31;;;;;;;4.70;2.30;;;;;;;15.72;51.71;97587.23;105135;1289;22471;-87
2022/10/12 11:03:11;;;;;;;8.00;2.90;;;;;;;15.76;51.72;97586.91;105179;1285;22537;-88
2022/10/12 11:05:48;;;;;;;3.80;2.30;;;;;;;15.72;51.18;97583.97;105069;1298;22462;-88
2022/10/12 11:08:22;;;;;;;3.50;2.30;;;;;;;15.77;51.58;97582.83;105166;1291;22593;-88
2022/10/12 11:10:57;;;;;;;4.90;2.40;;;;;;;15.87;52.03;97583.83;105134;1288;22486;-88
2022/10/12 11:13:36;;;;;;;5.50;2.30;;;;;;;15.92;51.28;97581.47;105119;1304;22475;-87
2022/10/12 11:16:20;;;;;;;5.80;2.50;;;;;;;15.82;51.06;97583.73;105144;1281;22458;-87
2022/10/12 11:18:57;;;;;;;7.50;2.40;;;;;;;15.79;51.39;97580.89;105041;1282;183854;-88
2022/10/12 11:21:35;;;;;;;5.70;2.50;;;;;;;15.79;51.37;97577.52;105162;1305;22501;-87
2022/10/12 11:24:13;;;;;;;5.50;2.50;;;;;;;15.79;51.27;97575.48;105131;1297;22502;-87
2022/10/12 11:26:49;;;;;;;6.00;2.40;;;;;;;15.88;51.71;97575.63;105018;1306;25527;-87
2022/10/12 11:29:20;;;;;;;6.10;2.30;;;;;;;15.99;51.36;97574.78;105069;1291;22467;-87
2022/10/12 11:31:58;;;;;;;4.00;2.10;;;;;;;16.06;51.26;97574.59;105073;1306;22501;-87
2022/10/12 11:34:39;;;;;;;6.60;2.70;;;;;;;15.95;49.36;97579.53;105100;1300;22476;-87
2022/10/12 11:37:17;;;;;;;6.40;2.80;;;;;;;15.65;50.41;97572.95;105126;1304;22470;-87
2022/10/12 11:39:50;;;;;;;7.20;2.50;;;;;;;15.75;50.52;97570.45;105175;1288;22478;-87
2022/10/12 11:42:29;;;;;;;8.70;2.80;;;;;;;15.72;49.62;97566.38;105157;1303;22519;-87
2022/10/12 11:45:03;;;;;;;6.40;2.30;;;;;;;15.33;48.82;97568.22;105093;1284;24136;-88
2022/10/12 11:47:40;;;;;;;4.20;2.10;;;;;;;15.24;49.32;97567.73;105119;1304;22484;-87
2022/10/12 11:50:25;;;;;;;5.70;2.40;;;;;;;15.11;49.66;97567.94;105165;1289;25392;-87
2022/10/12 11:52:58;;;;;;;6.40;2.20;;;;;;;15.30;50.89;97566.60;105188;1305;22512;-87
2022/10/12 11:55:43;;;;;;;3.80;2.00;;;;;;;15.52;51.05;97562.75;105085;1296;25256;-87
2022/10/12 11:58:22;;;;;;;5.50;2.60;;;;;;;15.64;50.51;97570.77;105135;1305;22456;-87
2022/10/12 12:01:06;;;;;;;5.80;2.10;;;;;;;15.76;50.79;97567.61;105120;1303;23938;-87